Terminal Aerodrome Forecast
Issued by NWS

Home | Current Version | Previous Version | Text Only | Print | Product List | Glossary On
Versions: 1 2 3 4 5 6 7 8 9 10 11 12 13 14 15 16 17 18 19
313
FTUS43 KAPX 260520
TAFAPN
TAF
KAPN 260520Z 2606/2706 VRB03KT 6SM -SN OVC050
     FM260800 27007KT P6SM SCT130
     FM261200 23006KT P6SM BKN120
     FM262000 22012G21KT P6SM BKN035
     FM262300 22011KT P6SM BKN070=

USA.gov is the U.S. government's official web portal to all federal, state and local government web resources and services.